sensor_id;sensor_type;location;lat;lon;timestamp;P1;durP1;ratioP1;P2;durP2;ratioP2
43124;SDS011;49182;50.788;7.318;2023-04-25T00:02:14;4.78;;;2.22;;
43124;SDS011;49182;50.788;7.318;2023-04-25T00:04:41;10.00;;;2.67;;
43124;SDS011;49182;50.788;7.318;2023-04-25T00:07:08;5.75;;;2.42;;
43124;SDS011;49182;50.788;7.318;2023-04-25T00:09:36;4.78;;;2.42;;
43124;SDS011;49182;50.788;7.318;2023-04-25T00:12:03;7.45;;;2.40;;
43124;SDS011;49182;50.788;7.318;2023-04-25T00:14:29;15.55;;;2.28;;
43124;SDS011;49182;50.788;7.318;2023-04-25T00:16:56;9.20;;;2.40;;
43124;SDS011;49182;50.788;7.318;2023-04-25T00:19:23;7.90;;;3.85;;
43124;SDS011;49182;50.788;7.318;2023-04-25T00:21:49;9.52;;;4.68;;
43124;SDS011;49182;50.788;7.318;2023-04-25T00:24:16;8.65;;;3.40;;
43124;SDS011;49182;50.788;7.318;2023-04-25T00:26:44;6.10;;;3.00;;
43124;SDS011;49182;50.788;7.318;2023-04-25T00:29:11;8.50;;;3.28;;
43124;SDS011;49182;50.788;7.318;2023-04-25T00:31:37;10.75;;;2.15;;
43124;SDS011;49182;50.788;7.318;2023-04-25T00:34:05;4.95;;;2.13;;
43124;SDS011;49182;50.788;7.318;2023-04-25T00:36:32;8.07;;;2.67;;
43124;SDS011;49182;50.788;7.318;2023-04-25T00:38:59;7.68;;;2.10;;
43124;SDS011;49182;50.788;7.318;2023-04-25T00:41:25;5.68;;;2.83;;
43124;SDS011;49182;50.788;7.318;2023-04-25T00:43:54;8.32;;;3.15;;
43124;SDS011;49182;50.788;7.318;2023-04-25T00:46:22;8.52;;;2.50;;
43124;SDS011;49182;50.788;7.318;2023-04-25T00:48:49;6.88;;;2.45;;
43124;SDS011;49182;50.788;7.318;2023-04-25T00:51:16;5.53;;;2.53;;
43124;SDS011;49182;50.788;7.318;2023-04-25T00:53:45;8.43;;;2.17;;
43124;SDS011;49182;50.788;7.318;2023-04-25T00:56:13;9.00;;;2.72;;
43124;SDS011;49182;50.788;7.318;2023-04-25T00:58:40;4.68;;;2.58;;
43124;SDS011;49182;50.788;7.318;2023-04-25T01:01:08;6.85;;;2.47;;
43124;SDS011;49182;50.788;7.318;2023-04-25T01:03:37;5.35;;;2.17;;
43124;SDS011;49182;50.788;7.318;2023-04-25T01:06:06;8.55;;;3.10;;
43124;SDS011;49182;50.788;7.318;2023-04-25T01:08:34;6.20;;;2.60;;
43124;SDS011;49182;50.788;7.318;2023-04-25T01:11:01;4.65;;;2.28;;
43124;SDS011;49182;50.788;7.318;2023-04-25T01:13:27;4.70;;;2.30;;
43124;SDS011;49182;50.788;7.318;2023-04-25T01:15:54;8.75;;;2.78;;
43124;SDS011;49182;50.788;7.318;2023-04-25T01:18:22;8.35;;;2.70;;
43124;SDS011;49182;50.788;7.318;2023-04-25T01:20:50;7.82;;;2.70;;
43124;SDS011;49182;50.788;7.318;2023-04-25T01:23:20;7.50;;;2.50;;
43124;SDS011;49182;50.788;7.318;2023-04-25T01:25:47;7.75;;;2.50;;
43124;SDS011;49182;50.788;7.318;2023-04-25T01:28:15;7.70;;;2.40;;
43124;SDS011;49182;50.788;7.318;2023-04-25T01:30:42;7.80;;;2.58;;
43124;SDS011;49182;50.788;7.318;2023-04-25T01:33:09;8.57;;;2.58;;
43124;SDS011;49182;50.788;7.318;2023-04-25T01:35:37;8.73;;;2.75;;
43124;SDS011;49182;50.788;7.318;2023-04-25T01:38:04;6.25;;;2.40;;
43124;SDS011;49182;50.788;7.318;2023-04-25T01:40:33;5.95;;;2.67;;
43124;SDS011;49182;50.788;7.318;2023-04-25T01:43:00;10.75;;;2.80;;
43124;SDS011;49182;50.788;7.318;2023-04-25T01:45:27;10.73;;;2.88;;
43124;SDS011;49182;50.788;7.318;2023-04-25T01:47:54;6.05;;;2.30;;
43124;SDS011;49182;50.788;7.318;2023-04-25T01:50:20;7.07;;;2.50;;
43124;SDS011;49182;50.788;7.318;2023-04-25T01:52:48;10.05;;;3.13;;
43124;SDS011;49182;50.788;7.318;2023-04-25T01:55:15;7.72;;;2.75;;
43124;SDS011;49182;50.788;7.318;2023-04-25T01:57:52;5.18;;;2.50;;
43124;SDS011;49182;50.788;7.318;2023-04-25T02:00:28;11.30;;;2.88;;
43124;SDS011;49182;50.788;7.318;2023-04-25T02:02:57;6.63;;;2.88;;
43124;SDS011;49182;50.788;7.318;2023-04-25T02:05:33;7.50;;;2.55;;
43124;SDS011;49182;50.788;7.318;2023-04-25T02:08:01;6.85;;;2.67;;
43124;SDS011;49182;50.788;7.318;2023-04-25T02:10:28;7.60;;;2.78;;
43124;SDS011;49182;50.788;7.318;2023-04-25T02:13:10;11.57;;;3.85;;
43124;SDS011;49182;50.788;7.318;2023-04-25T02:16:02;7.18;;;3.05;;
43124;SDS011;49182;50.788;7.318;2023-04-25T02:18:29;9.45;;;2.88;;
43124;SDS011;49182;50.788;7.318;2023-04-25T02:20:57;10.80;;;3.58;;
43124;SDS011;49182;50.788;7.318;2023-04-25T02:23:24;8.07;;;2.63;;
43124;SDS011;49182;50.788;7.318;2023-04-25T02:25:51;7.57;;;2.95;;
43124;SDS011;49182;50.788;7.318;2023-04-25T02:28:20;8.48;;;2.90;;
43124;SDS011;49182;50.788;7.318;2023-04-25T02:30:46;9.00;;;3.00;;
43124;SDS011;49182;50.788;7.318;2023-04-25T02:33:13;7.72;;;2.78;;
43124;SDS011;49182;50.788;7.318;2023-04-25T02:35:40;9.00;;;3.03;;
43124;SDS011;49182;50.788;7.318;2023-04-25T02:38:06;8.68;;;3.25;;
43124;SDS011;49182;50.788;7.318;2023-04-25T02:40:33;6.95;;;2.85;;
43124;SDS011;49182;50.788;7.318;2023-04-25T02:43:00;10.05;;;3.38;;
43124;SDS011;49182;50.788;7.318;2023-04-25T02:45:28;9.25;;;3.17;;
43124;SDS011;49182;50.788;7.318;2023-04-25T02:47:55;7.68;;;2.58;;
43124;SDS011;49182;50.788;7.318;2023-04-25T02:50:21;9.68;;;3.22;;
43124;SDS011;49182;50.788;7.318;2023-04-25T02:52:48;8.23;;;2.72;;
43124;SDS011;49182;50.788;7.318;2023-04-25T02:55:23;8.57;;;3.47;;
43124;SDS011;49182;50.788;7.318;2023-04-25T02:57:53;9.73;;;2.90;;
43124;SDS011;49182;50.788;7.318;2023-04-25T03:00:34;5.47;;;2.80;;
43124;SDS011;49182;50.788;7.318;2023-04-25T03:03:00;10.98;;;4.63;;
43124;SDS011;49182;50.788;7.318;2023-04-25T03:05:27;8.82;;;3.25;;
43124;SDS011;49182;50.788;7.318;2023-04-25T03:07:54;7.80;;;3.15;;
43124;SDS011;49182;50.788;7.318;2023-04-25T03:10:21;7.60;;;2.88;;
43124;SDS011;49182;50.788;7.318;2023-04-25T03:12:48;6.05;;;3.05;;
43124;SDS011;49182;50.788;7.318;2023-04-25T03:15:15;8.80;;;2.95;;
43124;SDS011;49182;50.788;7.318;2023-04-25T03:17:43;9.93;;;3.63;;
43124;SDS011;49182;50.788;7.318;2023-04-25T03:20:10;7.75;;;2.80;;
43124;SDS011;49182;50.788;7.318;2023-04-25T03:22:37;5.43;;;2.75;;
43124;SDS011;49182;50.788;7.318;2023-04-25T03:25:04;11.05;;;3.15;;
43124;SDS011;49182;50.788;7.318;2023-04-25T03:27:32;6.57;;;2.75;;
43124;SDS011;49182;50.788;7.318;2023-04-25T03:29:58;7.13;;;2.83;;
43124;SDS011;49182;50.788;7.318;2023-04-25T03:32:25;7.63;;;2.85;;
43124;SDS011;49182;50.788;7.318;2023-04-25T03:34:53;8.00;;;2.88;;
43124;SDS011;49182;50.788;7.318;2023-04-25T03:37:22;8.05;;;2.47;;
43124;SDS011;49182;50.788;7.318;2023-04-25T03:39:48;6.63;;;2.88;;
43124;SDS011;49182;50.788;7.318;2023-04-25T03:42:16;6.20;;;2.90;;
43124;SDS011;49182;50.788;7.318;2023-04-25T03:44:43;9.52;;;3.00;;
43124;SDS011;49182;50.788;7.318;2023-04-25T03:47:10;9.80;;;2.78;;
43124;SDS011;49182;50.788;7.318;2023-04-25T03:49:36;7.78;;;2.75;;
43124;SDS011;49182;50.788;7.318;2023-04-25T03:52:06;11.48;;;2.92;;
43124;SDS011;49182;50.788;7.318;2023-04-25T03:54:37;6.35;;;2.78;;
43124;SDS011;49182;50.788;7.318;2023-04-25T03:57:14;7.68;;;2.60;;
43124;SDS011;49182;50.788;7.318;2023-04-25T03:59:41;6.97;;;2.78;;
43124;SDS011;49182;50.788;7.318;2023-04-25T04:02:11;10.13;;;3.05;;
43124;SDS011;49182;50.788;7.318;2023-04-25T04:04:38;5.00;;;2.70;;
43124;SDS011;49182;50.788;7.318;2023-04-25T04:07:07;7.65;;;2.92;;
43124;SDS011;49182;50.788;7.318;2023-04-25T04:09:36;6.38;;;2.60;;
43124;SDS011;49182;50.788;7.318;2023-04-25T04:12:07;8.55;;;3.60;;
43124;SDS011;49182;50.788;7.318;2023-04-25T04:14:37;7.40;;;2.95;;
43124;SDS011;49182;50.788;7.318;2023-04-25T04:17:04;5.85;;;2.97;;
43124;SDS011;49182;50.788;7.318;2023-04-25T04:19:31;5.60;;;2.70;;
43124;SDS011;49182;50.788;7.318;2023-04-25T04:22:08;5.50;;;2.67;;
43124;SDS011;49182;50.788;7.318;2023-04-25T04:24:35;6.80;;;2.83;;
43124;SDS011;49182;50.788;7.318;2023-04-25T04:27:05;8.48;;;3.30;;
43124;SDS011;49182;50.788;7.318;2023-04-25T04:29:38;7.05;;;2.95;;
43124;SDS011;49182;50.788;7.318;2023-04-25T04:32:23;11.25;;;3.28;;
43124;SDS011;49182;50.788;7.318;2023-04-25T04:34:51;9.20;;;3.65;;
43124;SDS011;49182;50.788;7.318;2023-04-25T04:37:21;8.80;;;3.20;;
43124;SDS011;49182;50.788;7.318;2023-04-25T04:39:48;7.38;;;3.17;;
43124;SDS011;49182;50.788;7.318;2023-04-25T04:42:29;8.13;;;3.08;;
43124;SDS011;49182;50.788;7.318;2023-04-25T04:45:16;8.88;;;3.33;;
43124;SDS011;49182;50.788;7.318;2023-04-25T04:48:01;8.70;;;2.95;;
43124;SDS011;49182;50.788;7.318;2023-04-25T04:50:31;7.43;;;3.20;;
43124;SDS011;49182;50.788;7.318;2023-04-25T04:53:17;11.93;;;4.22;;
43124;SDS011;49182;50.788;7.318;2023-04-25T04:56:07;8.63;;;3.55;;
43124;SDS011;49182;50.788;7.318;2023-04-25T04:59:00;15.35;;;3.20;;
43124;SDS011;49182;50.788;7.318;2023-04-25T05:01:56;8.35;;;3.35;;
43124;SDS011;49182;50.788;7.318;2023-04-25T05:04:41;7.93;;;3.35;;
43124;SDS011;49182;50.788;7.318;2023-04-25T05:07:23;10.50;;;3.88;;
43124;SDS011;49182;50.788;7.318;2023-04-25T05:10:17;13.77;;;3.63;;
43124;SDS011;49182;50.788;7.318;2023-04-25T05:13:23;18.00;;;3.80;;
43124;SDS011;49182;50.788;7.318;2023-04-25T05:16:00;8.27;;;3.03;;
43124;SDS011;49182;50.788;7.318;2023-04-25T05:18:47;8.60;;;3.35;;
43124;SDS011;49182;50.788;7.318;2023-04-25T05:21:26;8.20;;;3.70;;
43124;SDS011;49182;50.788;7.318;2023-04-25T05:24:08;10.10;;;4.10;;
43124;SDS011;49182;50.788;7.318;2023-04-25T05:27:08;16.10;;;5.10;;
43124;SDS011;49182;50.788;7.318;2023-04-25T05:29:50;14.52;;;4.72;;
43124;SDS011;49182;50.788;7.318;2023-04-25T05:32:27;11.93;;;4.57;;
43124;SDS011;49182;50.788;7.318;2023-04-25T05:34:54;21.85;;;5.20;;
43124;SDS011;49182;50.788;7.318;2023-04-25T05:37:27;14.02;;;4.80;;
43124;SDS011;49182;50.788;7.318;2023-04-25T05:39:57;15.70;;;4.63;;
43124;SDS011;49182;50.788;7.318;2023-04-25T05:42:44;17.00;;;5.30;;
43124;SDS011;49182;50.788;7.318;2023-04-25T05:45:39;11.68;;;5.13;;
43124;SDS011;49182;50.788;7.318;2023-04-25T05:48:29;16.00;;;5.68;;
43124;SDS011;49182;50.788;7.318;2023-04-25T05:51:14;12.80;;;4.53;;
43124;SDS011;49182;50.788;7.318;2023-04-25T05:54:08;13.07;;;4.90;;
43124;SDS011;49182;50.788;7.318;2023-04-25T05:56:36;9.90;;;4.55;;
43124;SDS011;49182;50.788;7.318;2023-04-25T05:59:04;13.77;;;5.30;;
43124;SDS011;49182;50.788;7.318;2023-04-25T06:01:30;11.00;;;4.88;;
43124;SDS011;49182;50.788;7.318;2023-04-25T06:03:57;17.40;;;6.18;;
43124;SDS011;49182;50.788;7.318;2023-04-25T06:06:24;17.27;;;5.10;;
43124;SDS011;49182;50.788;7.318;2023-04-25T06:08:51;15.50;;;5.80;;
43124;SDS011;49182;50.788;7.318;2023-04-25T06:11:18;18.88;;;5.78;;
43124;SDS011;49182;50.788;7.318;2023-04-25T06:13:45;11.90;;;4.90;;
43124;SDS011;49182;50.788;7.318;2023-04-25T06:16:16;19.40;;;5.50;;
43124;SDS011;49182;50.788;7.318;2023-04-25T06:18:43;11.82;;;4.93;;
43124;SDS011;49182;50.788;7.318;2023-04-25T06:21:10;14.63;;;5.07;;
43124;SDS011;49182;50.788;7.318;2023-04-25T06:23:36;19.10;;;5.82;;
43124;SDS011;49182;50.788;7.318;2023-04-25T06:26:06;20.70;;;5.78;;
43124;SDS011;49182;50.788;7.318;2023-04-25T06:28:35;16.13;;;6.03;;
43124;SDS011;49182;50.788;7.318;2023-04-25T06:31:03;15.23;;;6.10;;
43124;SDS011;49182;50.788;7.318;2023-04-25T06:33:31;15.73;;;5.60;;
43124;SDS011;49182;50.788;7.318;2023-04-25T06:35:58;13.23;;;5.05;;
43124;SDS011;49182;50.788;7.318;2023-04-25T06:38:26;17.27;;;7.28;;
43124;SDS011;49182;50.788;7.318;2023-04-25T06:40:55;13.63;;;5.50;;
43124;SDS011;49182;50.788;7.318;2023-04-25T06:43:23;15.73;;;5.40;;
43124;SDS011;49182;50.788;7.318;2023-04-25T06:46:05;9.57;;;4.05;;
43124;SDS011;49182;50.788;7.318;2023-04-25T06:48:39;13.25;;;5.53;;
43124;SDS011;49182;50.788;7.318;2023-04-25T06:51:06;14.15;;;6.30;;
43124;SDS011;49182;50.788;7.318;2023-04-25T06:53:35;19.10;;;5.75;;
43124;SDS011;49182;50.788;7.318;2023-04-25T06:56:04;18.35;;;5.75;;
43124;SDS011;49182;50.788;7.318;2023-04-25T06:58:44;16.52;;;5.15;;
43124;SDS011;49182;50.788;7.318;2023-04-25T07:01:22;13.93;;;5.05;;
43124;SDS011;49182;50.788;7.318;2023-04-25T07:03:50;15.25;;;4.15;;
43124;SDS011;49182;50.788;7.318;2023-04-25T07:06:18;16.77;;;4.88;;
43124;SDS011;49182;50.788;7.318;2023-04-25T07:08:45;12.65;;;4.30;;
43124;SDS011;49182;50.788;7.318;2023-04-25T07:11:11;12.93;;;4.28;;
43124;SDS011;49182;50.788;7.318;2023-04-25T07:13:38;22.85;;;5.22;;
43124;SDS011;49182;50.788;7.318;2023-04-25T07:16:06;14.43;;;4.95;;
43124;SDS011;49182;50.788;7.318;2023-04-25T07:18:34;13.70;;;3.90;;
43124;SDS011;49182;50.788;7.318;2023-04-25T07:21:03;10.77;;;3.90;;
43124;SDS011;49182;50.788;7.318;2023-04-25T07:23:32;12.30;;;3.97;;
43124;SDS011;49182;50.788;7.318;2023-04-25T07:26:01;11.57;;;4.07;;
43124;SDS011;49182;50.788;7.318;2023-04-25T07:28:28;11.25;;;3.72;;
43124;SDS011;49182;50.788;7.318;2023-04-25T07:30:55;18.88;;;4.45;;
43124;SDS011;49182;50.788;7.318;2023-04-25T07:33:24;15.35;;;4.22;;
43124;SDS011;49182;50.788;7.318;2023-04-25T07:35:50;15.35;;;4.15;;
43124;SDS011;49182;50.788;7.318;2023-04-25T07:38:20;14.85;;;3.85;;
43124;SDS011;49182;50.788;7.318;2023-04-25T07:40:47;17.00;;;3.47;;
43124;SDS011;49182;50.788;7.318;2023-04-25T07:43:15;10.98;;;3.83;;
43124;SDS011;49182;50.788;7.318;2023-04-25T07:45:52;12.45;;;3.58;;
43124;SDS011;49182;50.788;7.318;2023-04-25T07:48:20;15.88;;;4.57;;
43124;SDS011;49182;50.788;7.318;2023-04-25T07:50:47;14.38;;;4.22;;
43124;SDS011;49182;50.788;7.318;2023-04-25T07:53:15;13.38;;;3.63;;
43124;SDS011;49182;50.788;7.318;2023-04-25T07:55:49;10.30;;;4.07;;
43124;SDS011;49182;50.788;7.318;2023-04-25T07:58:17;10.50;;;3.72;;
43124;SDS011;49182;50.788;7.318;2023-04-25T08:00:44;12.52;;;3.20;;
43124;SDS011;49182;50.788;7.318;2023-04-25T08:03:30;8.90;;;3.22;;
43124;SDS011;49182;50.788;7.318;2023-04-25T08:05:58;13.82;;;3.25;;
43124;SDS011;49182;50.788;7.318;2023-04-25T08:08:29;9.95;;;3.33;;
43124;SDS011;49182;50.788;7.318;2023-04-25T08:10:57;10.80;;;2.88;;
43124;SDS011;49182;50.788;7.318;2023-04-25T08:13:23;14.40;;;3.03;;
43124;SDS011;49182;50.788;7.318;2023-04-25T08:15:52;11.75;;;2.97;;
43124;SDS011;49182;50.788;7.318;2023-04-25T08:18:19;13.23;;;2.95;;
43124;SDS011;49182;50.788;7.318;2023-04-25T08:20:48;10.63;;;3.15;;
43124;SDS011;49182;50.788;7.318;2023-04-25T08:23:15;11.52;;;3.22;;
43124;SDS011;49182;50.788;7.318;2023-04-25T08:25:41;14.23;;;3.20;;
43124;SDS011;49182;50.788;7.318;2023-04-25T08:28:12;15.75;;;3.38;;
43124;SDS011;49182;50.788;7.318;2023-04-25T08:30:39;10.93;;;2.70;;
43124;SDS011;49182;50.788;7.318;2023-04-25T08:33:08;14.75;;;3.10;;
43124;SDS011;49182;50.788;7.318;2023-04-25T08:35:55;11.32;;;2.55;;
43124;SDS011;49182;50.788;7.318;2023-04-25T08:38:23;6.85;;;2.53;;
43124;SDS011;49182;50.788;7.318;2023-04-25T08:40:50;9.70;;;2.42;;
43124;SDS011;49182;50.788;7.318;2023-04-25T08:43:19;11.68;;;2.42;;
43124;SDS011;49182;50.788;7.318;2023-04-25T08:45:47;12.18;;;2.80;;
43124;SDS011;49182;50.788;7.318;2023-04-25T08:48:23;13.20;;;2.88;;
43124;SDS011;49182;50.788;7.318;2023-04-25T08:50:53;9.43;;;2.45;;
43124;SDS011;49182;50.788;7.318;2023-04-25T08:53:23;12.60;;;2.90;;
43124;SDS011;49182;50.788;7.318;2023-04-25T08:55:57;15.07;;;2.97;;
43124;SDS011;49182;50.788;7.318;2023-04-25T08:58:27;7.00;;;2.45;;
43124;SDS011;49182;50.788;7.318;2023-04-25T09:00:54;7.65;;;2.00;;
43124;SDS011;49182;50.788;7.318;2023-04-25T09:03:24;11.85;;;2.50;;
43124;SDS011;49182;50.788;7.318;2023-04-25T09:05:51;11.40;;;2.95;;
43124;SDS011;49182;50.788;7.318;2023-04-25T09:08:19;12.20;;;2.63;;
43124;SDS011;49182;50.788;7.318;2023-04-25T09:10:47;9.50;;;2.42;;
43124;SDS011;49182;50.788;7.318;2023-04-25T09:13:14;8.98;;;2.78;;
43124;SDS011;49182;50.788;7.318;2023-04-25T09:16:26;7.68;;;2.88;;
43124;SDS011;49182;50.788;7.318;2023-04-25T09:19:19;8.95;;;2.72;;
43124;SDS011;49182;50.788;7.318;2023-04-25T09:22:04;11.93;;;3.05;;
43124;SDS011;49182;50.788;7.318;2023-04-25T09:24:35;10.65;;;2.90;;
43124;SDS011;49182;50.788;7.318;2023-04-25T09:27:04;7.25;;;2.83;;
43124;SDS011;49182;50.788;7.318;2023-04-25T09:29:31;8.57;;;2.90;;
43124;SDS011;49182;50.788;7.318;2023-04-25T09:32:15;9.43;;;2.80;;
43124;SDS011;49182;50.788;7.318;2023-04-25T09:34:46;10.82;;;2.55;;
43124;SDS011;49182;50.788;7.318;2023-04-25T09:37:19;8.10;;;2.50;;
43124;SDS011;49182;50.788;7.318;2023-04-25T09:40:22;9.38;;;2.72;;
43124;SDS011;49182;50.788;7.318;2023-04-25T09:42:56;8.07;;;2.58;;
43124;SDS011;49182;50.788;7.318;2023-04-25T09:45:24;10.48;;;2.70;;
43124;SDS011;49182;50.788;7.318;2023-04-25T09:47:52;12.77;;;3.40;;
43124;SDS011;49182;50.788;7.318;2023-04-25T09:50:25;5.85;;;2.33;;
43124;SDS011;49182;50.788;7.318;2023-04-25T09:53:02;12.13;;;2.92;;
43124;SDS011;49182;50.788;7.318;2023-04-25T09:55:37;7.30;;;3.10;;
43124;SDS011;49182;50.788;7.318;2023-04-25T09:58:05;10.27;;;2.80;;
43124;SDS011;49182;50.788;7.318;2023-04-25T10:00:32;10.27;;;2.83;;
43124;SDS011;49182;50.788;7.318;2023-04-25T10:03:16;8.27;;;3.03;;
43124;SDS011;49182;50.788;7.318;2023-04-25T10:05:54;8.38;;;3.20;;
43124;SDS011;49182;50.788;7.318;2023-04-25T10:08:23;9.82;;;2.75;;
43124;SDS011;49182;50.788;7.318;2023-04-25T10:10:50;10.00;;;2.47;;
43124;SDS011;49182;50.788;7.318;2023-04-25T10:13:17;9.90;;;2.58;;
43124;SDS011;49182;50.788;7.318;2023-04-25T10:15:44;8.10;;;2.67;;
43124;SDS011;49182;50.788;7.318;2023-04-25T10:18:12;19.58;;;4.63;;
43124;SDS011;49182;50.788;7.318;2023-04-25T10:20:40;6.97;;;2.00;;
43124;SDS011;49182;50.788;7.318;2023-04-25T10:23:09;9.18;;;2.20;;
43124;SDS011;49182;50.788;7.318;2023-04-25T10:25:41;8.48;;;2.55;;
43124;SDS011;49182;50.788;7.318;2023-04-25T10:28:08;11.80;;;2.60;;
43124;SDS011;49182;50.788;7.318;2023-04-25T10:30:35;6.85;;;1.85;;
43124;SDS011;49182;50.788;7.318;2023-04-25T10:33:01;6.53;;;1.73;;
43124;SDS011;49182;50.788;7.318;2023-04-25T10:35:43;12.27;;;1.80;;
43124;SDS011;49182;50.788;7.318;2023-04-25T10:38:11;7.72;;;1.90;;
43124;SDS011;49182;50.788;7.318;2023-04-25T10:40:40;10.55;;;2.15;;
43124;SDS011;49182;50.788;7.318;2023-04-25T10:46:18;7.53;;;2.15;;
43124;SDS011;49182;50.788;7.318;2023-04-25T10:48:49;7.10;;;1.80;;
43124;SDS011;49182;50.788;7.318;2023-04-25T10:51:19;9.57;;;1.98;;
43124;SDS011;49182;50.788;7.318;2023-04-25T10:53:56;10.75;;;2.33;;
43124;SDS011;49182;50.788;7.318;2023-04-25T10:56:25;8.20;;;1.92;;
43124;SDS011;49182;50.788;7.318;2023-04-25T10:58:57;8.35;;;2.80;;
43124;SDS011;49182;50.788;7.318;2023-04-25T11:01:35;8.75;;;1.80;;
43124;SDS011;49182;50.788;7.318;2023-04-25T11:04:03;9.38;;;1.80;;
43124;SDS011;49182;50.788;7.318;2023-04-25T11:06:34;6.93;;;1.92;;
43124;SDS011;49182;50.788;7.318;2023-04-25T11:09:23;9.40;;;2.28;;
43124;SDS011;49182;50.788;7.318;2023-04-25T11:11:53;4.50;;;1.63;;
43124;SDS011;49182;50.788;7.318;2023-04-25T11:14:20;8.13;;;2.72;;
43124;SDS011;49182;50.788;7.318;2023-04-25T11:16:46;9.13;;;2.40;;
43124;SDS011;49182;50.788;7.318;2023-04-25T11:19:13;5.75;;;2.00;;
43124;SDS011;49182;50.788;7.318;2023-04-25T11:21:41;6.93;;;1.75;;
43124;SDS011;49182;50.788;7.318;2023-04-25T11:24:08;13.13;;;2.50;;
43124;SDS011;49182;50.788;7.318;2023-04-25T11:26:34;12.65;;;2.03;;
43124;SDS011;49182;50.788;7.318;2023-04-25T11:29:01;11.55;;;2.22;;
43124;SDS011;49182;50.788;7.318;2023-04-25T11:31:28;4.13;;;1.70;;
43124;SDS011;49182;50.788;7.318;2023-04-25T11:33:56;9.40;;;2.10;;
43124;SDS011;49182;50.788;7.318;2023-04-25T11:36:23;7.88;;;2.45;;
43124;SDS011;49182;50.788;7.318;2023-04-25T11:38:51;15.85;;;3.25;;
43124;SDS011;49182;50.788;7.318;2023-04-25T11:41:18;7.45;;;2.03;;
43124;SDS011;49182;50.788;7.318;2023-04-25T11:43:45;8.10;;;2.58;;
43124;SDS011;49182;50.788;7.318;2023-04-25T11:46:12;8.52;;;1.92;;
43124;SDS011;49182;50.788;7.318;2023-04-25T11:48:39;7.13;;;2.17;;
43124;SDS011;49182;50.788;7.318;2023-04-25T11:51:06;13.77;;;2.63;;
43124;SDS011;49182;50.788;7.318;2023-04-25T11:53:33;5.57;;;1.58;;
43124;SDS011;49182;50.788;7.318;2023-04-25T11:56:00;10.85;;;1.58;;
43124;SDS011;49182;50.788;7.318;2023-04-25T11:58:27;8.23;;;1.52;;
43124;SDS011;49182;50.788;7.318;2023-04-25T12:00:54;5.32;;;1.60;;
43124;SDS011;49182;50.788;7.318;2023-04-25T12:03:21;7.40;;;2.65;;
43124;SDS011;49182;50.788;7.318;2023-04-25T12:05:48;5.55;;;1.70;;
43124;SDS011;49182;50.788;7.318;2023-04-25T12:08:16;9.02;;;2.00;;
43124;SDS011;49182;50.788;7.318;2023-04-25T12:10:45;9.00;;;1.50;;
43124;SDS011;49182;50.788;7.318;2023-04-25T12:13:23;5.20;;;1.63;;
43124;SDS011;49182;50.788;7.318;2023-04-25T12:15:51;7.13;;;2.10;;
43124;SDS011;49182;50.788;7.318;2023-04-25T12:18:22;6.90;;;1.60;;
43124;SDS011;49182;50.788;7.318;2023-04-25T12:23:16;9.80;;;2.13;;
43124;SDS011;49182;50.788;7.318;2023-04-25T12:25:43;6.93;;;1.90;;
43124;SDS011;49182;50.788;7.318;2023-04-25T12:28:11;7.53;;;1.90;;
43124;SDS011;49182;50.788;7.318;2023-04-25T12:30:53;7.28;;;2.05;;
43124;SDS011;49182;50.788;7.318;2023-04-25T12:33:20;10.55;;;2.05;;
43124;SDS011;49182;50.788;7.318;2023-04-25T12:35:47;7.55;;;1.67;;
43124;SDS011;49182;50.788;7.318;2023-04-25T12:38:20;5.22;;;1.80;;
43124;SDS011;49182;50.788;7.318;2023-04-25T12:40:47;8.65;;;1.85;;
43124;SDS011;49182;50.788;7.318;2023-04-25T12:43:13;4.72;;;1.38;;
43124;SDS011;49182;50.788;7.318;2023-04-25T12:45:40;4.90;;;1.67;;
43124;SDS011;49182;50.788;7.318;2023-04-25T12:48:08;6.43;;;1.60;;
43124;SDS011;49182;50.788;7.318;2023-04-25T12:50:35;6.05;;;1.60;;
43124;SDS011;49182;50.788;7.318;2023-04-25T12:53:01;3.80;;;1.35;;
43124;SDS011;49182;50.788;7.318;2023-04-25T12:55:28;5.15;;;1.40;;
43124;SDS011;49182;50.788;7.318;2023-04-25T12:57:54;7.68;;;1.50;;
43124;SDS011;49182;50.788;7.318;2023-04-25T13:00:21;5.13;;;1.20;;
43124;SDS011;49182;50.788;7.318;2023-04-25T13:02:48;4.10;;;1.40;;
43124;SDS011;49182;50.788;7.318;2023-04-25T13:05:16;5.63;;;1.13;;
43124;SDS011;49182;50.788;7.318;2023-04-25T13:07:42;6.25;;;1.50;;
43124;SDS011;49182;50.788;7.318;2023-04-25T13:10:09;3.17;;;1.20;;
43124;SDS011;49182;50.788;7.318;2023-04-25T13:12:36;7.05;;;1.52;;
43124;SDS011;49182;50.788;7.318;2023-04-25T13:15:03;9.40;;;1.75;;
43124;SDS011;49182;50.788;7.318;2023-04-25T13:17:30;13.48;;;1.63;;
43124;SDS011;49182;50.788;7.318;2023-04-25T13:19:57;5.57;;;1.65;;
43124;SDS011;49182;50.788;7.318;2023-04-25T13:22:25;7.07;;;1.48;;
43124;SDS011;49182;50.788;7.318;2023-04-25T13:24:52;4.50;;;1.83;;
43124;SDS011;49182;50.788;7.318;2023-04-25T13:27:18;2.55;;;1.10;;
43124;SDS011;49182;50.788;7.318;2023-04-25T13:29:45;4.05;;;1.90;;
43124;SDS011;49182;50.788;7.318;2023-04-25T13:32:11;5.30;;;1.33;;
43124;SDS011;49182;50.788;7.318;2023-04-25T13:34:38;10.60;;;4.03;;
43124;SDS011;49182;50.788;7.318;2023-04-25T13:37:05;5.15;;;1.95;;
43124;SDS011;49182;50.788;7.318;2023-04-25T13:39:33;7.00;;;1.33;;
43124;SDS011;49182;50.788;7.318;2023-04-25T13:41:59;5.70;;;1.25;;
43124;SDS011;49182;50.788;7.318;2023-04-25T13:44:26;5.65;;;1.40;;
43124;SDS011;49182;50.788;7.318;2023-04-25T13:46:52;6.72;;;1.50;;
43124;SDS011;49182;50.788;7.318;2023-04-25T13:49:19;5.82;;;1.40;;
43124;SDS011;49182;50.788;7.318;2023-04-25T13:51:46;3.55;;;1.30;;
43124;SDS011;49182;50.788;7.318;2023-04-25T13:54:12;5.20;;;1.38;;
43124;SDS011;49182;50.788;7.318;2023-04-25T13:56:40;6.53;;;1.50;;
43124;SDS011;49182;50.788;7.318;2023-04-25T13:59:07;4.60;;;1.48;;
43124;SDS011;49182;50.788;7.318;2023-04-25T14:01:34;7.20;;;1.63;;
43124;SDS011;49182;50.788;7.318;2023-04-25T14:04:00;6.30;;;1.55;;
43124;SDS011;49182;50.788;7.318;2023-04-25T14:06:27;3.38;;;1.30;;
43124;SDS011;49182;50.788;7.318;2023-04-25T14:08:54;6.72;;;1.40;;
43124;SDS011;49182;50.788;7.318;2023-04-25T14:11:21;3.17;;;1.20;;
43124;SDS011;49182;50.788;7.318;2023-04-25T14:13:48;4.85;;;1.40;;
43124;SDS011;49182;50.788;7.318;2023-04-25T14:16:16;4.05;;;1.45;;
43124;SDS011;49182;50.788;7.318;2023-04-25T14:18:43;4.15;;;1.17;;
43124;SDS011;49182;50.788;7.318;2023-04-25T14:21:10;6.70;;;1.30;;
43124;SDS011;49182;50.788;7.318;2023-04-25T14:23:37;4.13;;;0.98;;
43124;SDS011;49182;50.788;7.318;2023-04-25T14:26:03;4.95;;;1.05;;
43124;SDS011;49182;50.788;7.318;2023-04-25T14:28:30;5.60;;;1.35;;
43124;SDS011;49182;50.788;7.318;2023-04-25T14:30:58;3.33;;;1.13;;
43124;SDS011;49182;50.788;7.318;2023-04-25T14:33:24;3.45;;;1.10;;
43124;SDS011;49182;50.788;7.318;2023-04-25T14:35:51;4.15;;;1.30;;
43124;SDS011;49182;50.788;7.318;2023-04-25T14:38:18;4.75;;;1.65;;
43124;SDS011;49182;50.788;7.318;2023-04-25T14:40:45;7.20;;;1.70;;
43124;SDS011;49182;50.788;7.318;2023-04-25T14:43:11;6.25;;;1.80;;
43124;SDS011;49182;50.788;7.318;2023-04-25T14:45:40;6.57;;;1.33;;
43124;SDS011;49182;50.788;7.318;2023-04-25T14:48:11;4.07;;;1.38;;
43124;SDS011;49182;50.788;7.318;2023-04-25T14:50:38;4.53;;;1.52;;
43124;SDS011;49182;50.788;7.318;2023-04-25T14:53:05;5.82;;;1.67;;
43124;SDS011;49182;50.788;7.318;2023-04-25T14:55:31;6.20;;;1.40;;
43124;SDS011;49182;50.788;7.318;2023-04-25T14:57:58;4.65;;;1.55;;
43124;SDS011;49182;50.788;7.318;2023-04-25T15:00:24;5.00;;;1.42;;
43124;SDS011;49182;50.788;7.318;2023-04-25T15:02:51;8.95;;;1.70;;
43124;SDS011;49182;50.788;7.318;2023-04-25T15:05:20;6.47;;;1.98;;
43124;SDS011;49182;50.788;7.318;2023-04-25T15:07:46;5.95;;;1.45;;